createdAt,value
2019-03-20T00:01:12.811Z,69.60
2019-03-20T00:03:40.244Z,69.80
2019-03-20T00:06:07.621Z,69.80
2019-03-20T00:08:34.917Z,69.60
2019-03-20T00:11:02.293Z,69.60
2019-03-20T00:13:29.728Z,69.20
2019-03-20T00:15:57.134Z,69.30
2019-03-20T00:18:24.451Z,68.90
2019-03-20T00:20:51.757Z,69.00
2019-03-20T00:23:19.163Z,69.60
2019-03-20T00:25:46.557Z,69.60
2019-03-20T00:28:13.862Z,69.90
2019-03-20T00:30:41.178Z,70.00
2019-03-20T00:33:08.522Z,69.90
2019-03-20T00:35:35.923Z,69.90
2019-03-20T00:38:03.250Z,69.90
2019-03-20T00:40:30.694Z,70.20
2019-03-20T00:42:58.320Z,70.30
2019-03-20T00:45:25.518Z,70.50
2019-03-20T00:47:52.814Z,70.40
2019-03-20T00:50:20.233Z,70.10
2019-03-20T00:52:47.628Z,69.90
2019-03-20T00:55:15.700Z,69.80
2019-03-20T00:57:43.040Z,69.60
2019-03-20T01:00:13.268Z,69.50
2019-03-20T01:02:40.690Z,70.10
2019-03-20T01:05:12.425Z,70.80
2019-03-20T01:07:37.805Z,70.30
2019-03-20T01:10:06.664Z,70.80
2019-03-20T01:12:33.973Z,71.00
2019-03-20T01:15:01.285Z,70.70
2019-03-20T01:17:28.606Z,70.90
2019-03-20T01:19:56.024Z,70.80
2019-03-20T01:22:23.440Z,70.70
2019-03-20T01:24:50.873Z,70.70
2019-03-20T01:27:18.175Z,71.00
2019-03-20T01:29:45.574Z,70.70
2019-03-20T01:32:12.888Z,71.40
2019-03-20T01:34:40.238Z,71.50
2019-03-20T01:37:07.639Z,71.10
2019-03-20T01:39:35.053Z,71.30
2019-03-20T01:42:02.460Z,71.00
2019-03-20T01:44:29.850Z,70.80
2019-03-20T01:46:57.231Z,70.90
2019-03-20T01:49:24.663Z,71.00
2019-03-20T01:51:52.065Z,71.50
2019-03-20T01:54:19.373Z,71.00
2019-03-20T01:56:46.906Z,71.50
2019-03-20T01:59:14.185Z,71.00
2019-03-20T02:01:41.845Z,70.50
2019-03-20T02:04:09.205Z,71.10
2019-03-20T02:06:36.615Z,71.60
2019-03-20T02:09:06.023Z,71.50
2019-03-20T02:11:33.613Z,71.50
2019-03-20T02:14:00.876Z,71.40
2019-03-20T02:16:28.191Z,71.50
2019-03-20T02:18:55.576Z,71.30
2019-03-20T02:21:22.967Z,70.90
2019-03-20T02:23:50.276Z,70.90
2019-03-20T02:26:17.569Z,71.10
2019-03-20T02:28:44.884Z,71.20
2019-03-20T02:31:12.227Z,70.10
2019-03-20T02:33:39.619Z,70.90
2019-03-20T02:36:07.317Z,71.60
2019-03-20T02:38:34.715Z,72.00
2019-03-20T02:41:02.112Z,72.00
2019-03-20T02:43:29.425Z,71.60
2019-03-20T02:45:56.873Z,71.60
2019-03-20T02:48:24.239Z,71.70
2019-03-20T02:50:51.557Z,71.90
2019-03-20T02:53:18.967Z,72.10
2019-03-20T02:55:46.355Z,71.80
2019-03-20T02:58:14.055Z,71.70
2019-03-20T03:00:41.371Z,71.80
2019-03-20T03:03:08.775Z,71.70
2019-03-20T03:05:36.210Z,71.80
2019-03-20T03:08:03.524Z,72.20
2019-03-20T03:10:30.917Z,72.50
2019-03-20T03:12:58.314Z,72.10
2019-03-20T03:15:25.687Z,72.10
2019-03-20T03:17:53.126Z,72.00
2019-03-20T03:20:20.514Z,72.30
2019-03-20T03:22:47.843Z,72.00
2019-03-20T03:25:15.262Z,72.10
2019-03-20T03:27:42.684Z,71.80
2019-03-20T03:30:10.488Z,71.40
2019-03-20T03:32:37.920Z,71.30
2019-03-20T03:35:05.505Z,71.70
2019-03-20T03:37:32.916Z,71.90
2019-03-20T03:40:00.601Z,72.00
2019-03-20T03:42:28.165Z,71.80
2019-03-20T03:44:55.571Z,71.80
2019-03-20T03:47:22.890Z,71.70
2019-03-20T03:49:50.294Z,71.90
2019-03-20T03:52:17.718Z,72.40
2019-03-20T03:54:45.199Z,72.70
2019-03-20T03:57:12.614Z,72.90
2019-03-20T03:59:40.060Z,72.40
2019-03-20T04:02:07.489Z,71.90
2019-03-20T04:04:34.769Z,72.20
2019-03-20T04:07:02.222Z,72.10
2019-03-20T04:09:29.524Z,72.40
2019-03-20T04:11:56.925Z,72.80
2019-03-20T04:14:24.365Z,73.00
2019-03-20T04:16:52.082Z,73.50
2019-03-20T04:19:19.349Z,72.90
2019-03-20T04:21:46.667Z,72.90
2019-03-20T04:24:14.140Z,72.70
2019-03-20T04:26:41.528Z,72.60
2019-03-20T04:29:08.965Z,72.00
2019-03-20T04:31:36.348Z,72.10
2019-03-20T04:34:03.779Z,72.10
2019-03-20T04:36:31.234Z,71.90
2019-03-20T04:38:58.602Z,72.20
2019-03-20T04:41:26.030Z,72.00
2019-03-20T04:43:53.422Z,72.20
2019-03-20T04:46:20.770Z,72.00
2019-03-20T04:48:48.213Z,72.30
2019-03-20T04:51:15.555Z,72.50
2019-03-20T04:53:43.010Z,72.70
2019-03-20T04:56:10.513Z,73.00
2019-03-20T04:58:37.925Z,73.10
2019-03-20T05:01:05.461Z,73.40
2019-03-20T05:03:32.790Z,73.10
2019-03-20T05:06:00.300Z,72.50
2019-03-20T05:08:27.731Z,72.80
2019-03-20T05:10:55.220Z,72.70
2019-03-20T05:13:22.544Z,72.70
2019-03-20T05:15:50.040Z,72.40
2019-03-20T05:18:17.360Z,72.00
2019-03-20T05:20:44.852Z,72.40
2019-03-20T05:23:12.276Z,72.60
2019-03-20T05:25:39.779Z,72.70
2019-03-20T05:28:07.183Z,73.00
2019-03-20T05:30:34.487Z,73.20
2019-03-20T05:33:01.910Z,73.50
2019-03-20T05:35:29.308Z,73.70
2019-03-20T05:37:56.632Z,73.20
2019-03-20T05:40:23.973Z,72.90
2019-03-20T05:42:51.290Z,73.10
2019-03-20T05:45:18.704Z,73.20
2019-03-20T05:47:46.150Z,73.30
2019-03-20T05:50:13.819Z,73.30
2019-03-20T05:52:41.156Z,73.20
2019-03-20T05:55:08.693Z,73.70
2019-03-20T05:57:36.030Z,73.60
2019-03-20T06:00:04.312Z,73.90
2019-03-20T06:02:31.672Z,74.30
2019-03-20T06:04:59.005Z,74.20
2019-03-20T06:07:26.440Z,74.30
2019-03-20T06:09:53.925Z,73.90
2019-03-20T06:12:21.323Z,74.10
2019-03-20T06:14:48.671Z,74.40
2019-03-20T06:17:16.475Z,74.50
2019-03-20T06:19:43.892Z,74.50
2019-03-20T06:22:11.231Z,74.30
2019-03-20T06:24:38.526Z,74.10
2019-03-20T06:27:06.173Z,74.60
2019-03-20T06:29:33.578Z,75.20
2019-03-20T06:32:01.436Z,75.10
2019-03-20T06:34:28.872Z,74.80
2019-03-20T06:36:56.336Z,74.80
2019-03-20T06:39:24.054Z,74.50
2019-03-20T06:41:51.394Z,74.10
2019-03-20T06:44:18.765Z,74.30
2019-03-20T06:46:46.114Z,74.30
2019-03-20T06:49:13.458Z,73.50
2019-03-20T06:51:40.796Z,74.20
2019-03-20T06:54:08.268Z,75.00
2019-03-20T06:56:35.664Z,75.40
2019-03-20T06:59:46.886Z,75.10
2019-03-20T07:02:14.308Z,75.30
2019-03-20T07:05:19.030Z,75.30
2019-03-20T07:07:46.458Z,75.00
2019-03-20T07:10:21.581Z,74.40
2019-03-20T07:12:49.216Z,74.30
2019-03-20T07:15:16.421Z,74.20
2019-03-20T07:17:43.755Z,74.90
2019-03-20T07:20:11.184Z,74.90
2019-03-20T07:22:38.499Z,74.40
2019-03-20T07:25:06.133Z,73.90
2019-03-20T07:27:33.457Z,73.70
2019-03-20T07:30:00.857Z,73.70
2019-03-20T07:32:30.078Z,73.60
2019-03-20T07:34:57.515Z,73.20
2019-03-20T07:37:24.970Z,72.20
2019-03-20T07:39:52.325Z,72.70
2019-03-20T07:42:19.739Z,71.40
2019-03-20T07:44:47.161Z,70.30
2019-03-20T07:47:14.462Z,69.90
2019-03-20T07:49:41.774Z,70.60
2019-03-20T07:52:09.447Z,71.60
2019-03-20T07:54:36.926Z,70.90
2019-03-20T07:57:04.394Z,70.30
2019-03-20T07:59:31.712Z,69.20
2019-03-20T08:01:59.146Z,69.60
2019-03-20T08:04:26.562Z,70.20
2019-03-20T08:06:53.979Z,70.40
2019-03-20T08:09:21.426Z,70.10
2019-03-20T08:11:48.802Z,68.40
2019-03-20T08:14:16.114Z,66.60
2019-03-20T08:16:43.377Z,66.90
2019-03-20T08:19:10.794Z,65.00
2019-03-20T08:21:38.212Z,65.70
2019-03-20T08:24:05.529Z,65.90
2019-03-20T08:26:32.854Z,65.60
2019-03-20T08:29:00.150Z,66.30
2019-03-20T08:31:27.518Z,65.20
2019-03-20T08:33:54.946Z,65.00
2019-03-20T08:36:22.305Z,63.20
2019-03-20T08:38:49.735Z,63.50
2019-03-20T08:41:17.185Z,65.30
2019-03-20T08:43:45.686Z,64.60
2019-03-20T08:46:13.201Z,63.80
2019-03-20T08:48:40.500Z,63.10
2019-03-20T08:51:07.837Z,64.90
2019-03-20T08:53:35.533Z,63.40
2019-03-20T08:56:02.958Z,63.60
2019-03-20T08:58:30.394Z,63.00
2019-03-20T09:00:57.870Z,60.00
2019-03-20T09:03:25.295Z,62.10
2019-03-20T09:05:52.692Z,61.60
2019-03-20T09:08:28.914Z,60.70
2019-03-20T09:10:49.276Z,60.60
2019-03-20T09:13:16.569Z,59.30
2019-03-20T09:15:43.971Z,57.20
2019-03-20T09:18:11.411Z,58.80
2019-03-20T09:20:38.813Z,59.50
2019-03-20T09:23:06.240Z,57.50
2019-03-20T09:25:33.645Z,57.80
2019-03-20T09:28:00.964Z,57.80
2019-03-20T09:30:28.310Z,57.00
2019-03-20T09:32:55.725Z,56.00
2019-03-20T09:35:23.083Z,56.40
2019-03-20T09:37:52.413Z,55.80
2019-03-20T09:40:19.688Z,55.00
2019-03-20T09:42:47.136Z,53.40
2019-03-20T09:45:15.051Z,55.00
2019-03-20T09:47:42.536Z,54.50
2019-03-20T09:50:11.621Z,52.80
2019-03-20T09:52:39.005Z,52.90
2019-03-20T09:55:07.014Z,50.90
2019-03-20T09:57:34.485Z,49.90
2019-03-20T10:00:01.929Z,50.10
2019-03-20T10:02:29.787Z,46.90
2019-03-20T10:04:57.202Z,43.50
2019-03-20T10:07:24.632Z,43.30
2019-03-20T10:09:51.927Z,39.30
2019-03-20T10:12:19.247Z,37.20
2019-03-20T10:14:46.730Z,35.80
2019-03-20T10:17:14.140Z,34.10
2019-03-20T10:19:41.486Z,33.50
2019-03-20T10:22:08.788Z,31.60
2019-03-20T10:24:36.200Z,32.70
2019-03-20T10:27:03.600Z,32.60
2019-03-20T10:29:31.054Z,31.50
2019-03-20T10:31:58.460Z,31.30
2019-03-20T10:34:25.841Z,31.90
2019-03-20T10:36:53.223Z,29.60
2019-03-20T10:39:20.645Z,26.80
2019-03-20T10:41:48.358Z,24.30
2019-03-20T10:44:15.700Z,25.80
2019-03-20T10:46:43.109Z,25.10
2019-03-20T10:49:10.444Z,23.10
2019-03-20T10:51:37.834Z,23.10
2019-03-20T10:54:05.174Z,24.30
2019-03-20T10:56:32.634Z,24.10
2019-03-20T10:59:00.369Z,23.10
2019-03-20T11:01:27.802Z,22.20
2019-03-20T11:03:55.207Z,21.40
2019-03-20T11:06:22.600Z,20.20
2019-03-20T11:08:50.034Z,19.80
2019-03-20T11:11:26.491Z,19.80
2019-03-20T11:13:46.750Z,19.00
2019-03-20T11:16:14.510Z,18.60
2019-03-20T11:18:42.530Z,18.60
2019-03-20T11:21:09.857Z,17.70
2019-03-20T11:23:37.295Z,20.20
2019-03-20T11:26:04.662Z,19.90
2019-03-20T11:28:32.083Z,18.30
2019-03-20T11:30:59.463Z,17.90
2019-03-20T11:33:26.899Z,18.10
2019-03-20T11:35:54.323Z,18.00
2019-03-20T11:38:21.828Z,17.00
2019-03-20T11:40:49.237Z,16.80
2019-03-20T11:43:16.544Z,17.60
2019-03-20T11:45:43.860Z,17.40
2019-03-20T11:48:11.326Z,16.00
2019-03-20T11:50:38.768Z,16.50
2019-03-20T11:53:06.153Z,16.90
2019-03-20T11:55:33.507Z,16.60
2019-03-20T11:58:00.931Z,17.20
2019-03-20T12:00:28.493Z,16.70
2019-03-20T12:02:56.056Z,16.60
2019-03-20T12:05:23.583Z,16.50
2019-03-20T12:07:50.977Z,18.50
2019-03-20T12:10:19.692Z,19.50
2019-03-20T12:12:47.119Z,21.50
2019-03-20T12:15:14.785Z,21.80
2019-03-20T12:17:42.194Z,21.30
2019-03-20T12:20:12.343Z,21.80
2019-03-20T12:22:39.824Z,21.50
2019-03-20T12:25:09.281Z,22.70
2019-03-20T12:27:36.714Z,22.80
2019-03-20T12:30:06.879Z,20.70
2019-03-20T12:32:34.297Z,22.20
2019-03-20T12:35:01.658Z,21.30
2019-03-20T12:37:29.130Z,20.70
2019-03-20T12:39:56.541Z,21.60
2019-03-20T12:42:23.929Z,20.40
2019-03-20T12:44:51.369Z,19.50
2019-03-20T12:47:18.800Z,18.70
2019-03-20T12:49:46.228Z,18.70
2019-03-20T12:52:13.642Z,20.20
2019-03-20T12:54:41.031Z,19.20
2019-03-20T12:57:08.769Z,21.40
2019-03-20T12:59:36.112Z,20.80
2019-03-20T13:02:03.510Z,19.80
2019-03-20T13:04:31.001Z,21.70
2019-03-20T13:06:58.430Z,21.70
2019-03-20T13:09:26.154Z,20.50
2019-03-20T13:11:53.605Z,22.20
2019-03-20T13:14:21.136Z,22.30
2019-03-20T13:16:48.557Z,23.40
2019-03-20T13:19:15.931Z,22.80
2019-03-20T13:21:43.350Z,22.00
2019-03-20T13:24:10.746Z,21.50
2019-03-20T13:26:38.143Z,23.00
2019-03-20T13:29:05.556Z,23.70
2019-03-20T13:31:32.990Z,24.70
2019-03-20T13:34:00.827Z,24.10
2019-03-20T13:36:28.248Z,21.70
2019-03-20T13:38:56.540Z,22.90
2019-03-20T13:41:24.022Z,23.30
2019-03-20T13:43:51.455Z,22.40
2019-03-20T13:46:18.887Z,21.20
2019-03-20T13:48:46.322Z,21.00
2019-03-20T13:51:13.750Z,21.60
2019-03-20T13:53:41.076Z,22.10
2019-03-20T13:56:08.495Z,21.30
2019-03-20T13:58:35.815Z,20.70
2019-03-20T14:01:03.270Z,21.00
2019-03-20T14:03:30.689Z,20.60
2019-03-20T14:05:58.046Z,20.40
2019-03-20T14:08:25.798Z,20.50
2019-03-20T14:10:53.224Z,20.70
2019-03-20T14:13:20.590Z,21.40
2019-03-20T14:15:48.010Z,21.80
2019-03-20T14:18:15.435Z,21.00
2019-03-20T14:20:42.907Z,19.90
2019-03-20T14:23:10.333Z,20.10
2019-03-20T14:25:37.762Z,20.70
2019-03-20T14:28:05.285Z,19.70
2019-03-20T14:30:32.838Z,17.80
2019-03-20T14:33:00.271Z,17.40
2019-03-20T14:35:28.127Z,19.50
2019-03-20T14:37:55.573Z,20.10
2019-03-20T14:40:35.485Z,20.70
2019-03-20T14:42:56.642Z,20.80
2019-03-20T14:45:24.107Z,20.90
2019-03-20T14:47:51.537Z,22.10
2019-03-20T14:50:20.674Z,21.10
2019-03-20T14:52:48.145Z,22.90
2019-03-20T14:55:15.515Z,23.50
2019-03-20T14:57:42.938Z,25.40
2019-03-20T15:00:13.345Z,25.10
2019-03-20T15:02:41.082Z,26.60
2019-03-20T15:05:08.512Z,25.60
2019-03-20T15:07:35.947Z,25.40
2019-03-20T15:10:03.966Z,23.80
2019-03-20T15:12:31.390Z,23.60
2019-03-20T15:14:58.871Z,22.30
2019-03-20T15:17:26.654Z,21.80
2019-03-20T15:19:54.067Z,21.80
2019-03-20T15:22:21.543Z,20.80
2019-03-20T15:24:49.039Z,20.80
2019-03-20T15:27:16.429Z,21.70
2019-03-20T15:29:43.846Z,22.10
2019-03-20T15:32:11.291Z,21.80
2019-03-20T15:34:38.643Z,23.80
2019-03-20T15:37:06.102Z,24.80
2019-03-20T15:39:33.422Z,25.20
2019-03-20T15:42:00.777Z,25.80
2019-03-20T15:44:28.604Z,27.40
2019-03-20T15:46:56.038Z,27.10
2019-03-20T15:49:23.882Z,27.90
2019-03-20T15:51:51.287Z,28.60
2019-03-20T15:54:18.916Z,29.50
2019-03-20T15:56:46.361Z,30.40
2019-03-20T15:59:13.788Z,31.60
2019-03-20T16:01:41.221Z,32.70
2019-03-20T16:04:08.685Z,34.30
2019-03-20T16:06:36.184Z,34.50
2019-03-20T16:09:06.830Z,35.40
2019-03-20T16:11:34.269Z,36.00
2019-03-20T16:14:01.793Z,36.30
2019-03-20T16:16:29.270Z,36.70
2019-03-20T16:18:56.780Z,35.30
2019-03-20T16:21:24.231Z,36.20
2019-03-20T16:23:51.696Z,36.10
2019-03-20T16:26:19.071Z,37.50
2019-03-20T16:28:46.551Z,36.30
2019-03-20T16:31:14.059Z,37.60
2019-03-20T16:33:41.830Z,37.40
2019-03-20T16:36:09.326Z,38.20
2019-03-20T16:38:36.881Z,38.40
2019-03-20T16:41:04.350Z,38.30
2019-03-20T16:43:31.805Z,38.10
2019-03-20T16:45:59.249Z,37.90
2019-03-20T16:48:26.624Z,38.30
2019-03-20T16:50:54.065Z,38.50
2019-03-20T16:53:21.536Z,38.70
2019-03-20T16:55:49.405Z,38.20
2019-03-20T16:58:16.790Z,39.60
2019-03-20T17:00:44.275Z,39.60
2019-03-20T17:03:11.823Z,40.50
2019-03-20T17:05:39.655Z,40.60
2019-03-20T17:08:07.172Z,40.90
2019-03-20T17:10:37.310Z,41.30
2019-03-20T17:13:04.889Z,40.90
2019-03-20T17:15:32.414Z,41.20
2019-03-20T17:17:59.853Z,41.50
2019-03-20T17:20:27.487Z,41.60
2019-03-20T17:22:54.941Z,41.50
2019-03-20T17:25:22.445Z,41.50
2019-03-20T17:27:49.856Z,42.30
2019-03-20T17:30:25.460Z,41.30
2019-03-20T17:32:52.934Z,41.30
2019-03-20T17:35:20.484Z,42.10
2019-03-20T17:37:48.025Z,41.80
2019-03-20T17:40:16.268Z,42.40
2019-03-20T17:42:43.744Z,42.10
2019-03-20T17:45:12.248Z,42.40
2019-03-20T17:47:39.755Z,42.30
2019-03-20T17:50:11.081Z,42.00
2019-03-20T17:52:38.494Z,42.30
2019-03-20T17:55:06.099Z,42.30
2019-03-20T17:57:33.978Z,42.90
2019-03-20T18:00:02.111Z,42.60
2019-03-20T18:02:29.681Z,43.20
2019-03-20T18:04:57.181Z,43.40
2019-03-20T18:07:24.973Z,44.50
2019-03-20T18:09:52.403Z,43.80
2019-03-20T18:12:20.241Z,43.50
2019-03-20T18:14:47.794Z,43.90
2019-03-20T18:17:15.331Z,44.40
2019-03-20T18:19:42.804Z,43.90
2019-03-20T18:22:10.369Z,44.70
2019-03-20T18:24:37.959Z,44.70
2019-03-20T18:27:05.438Z,44.50
2019-03-20T18:29:33.006Z,45.40
2019-03-20T18:32:00.515Z,46.20
2019-03-20T18:34:28.021Z,46.20
2019-03-20T18:36:55.926Z,46.20
2019-03-20T18:39:23.539Z,46.40
2019-03-20T18:41:57.631Z,46.80
2019-03-20T18:44:20.434Z,47.10
2019-03-20T18:46:48.027Z,47.60
2019-03-20T18:49:16.027Z,48.40
2019-03-20T18:51:43.612Z,49.40
2019-03-20T18:54:11.137Z,51.30
2019-03-20T18:56:38.658Z,52.60
2019-03-20T18:59:06.518Z,52.90
2019-03-20T19:01:34.021Z,52.20
2019-03-20T19:04:01.642Z,52.80
2019-03-20T19:06:29.316Z,52.70
2019-03-20T19:08:57.221Z,53.10
2019-03-20T19:11:24.873Z,53.80
2019-03-20T19:13:52.815Z,54.10
2019-03-20T19:16:20.498Z,54.50
2019-03-20T19:18:48.105Z,55.30
2019-03-20T19:21:15.791Z,55.60
2019-03-20T19:23:43.453Z,56.40
2019-03-20T19:26:11.439Z,56.80
2019-03-20T19:28:39.592Z,56.90
2019-03-20T19:31:07.354Z,56.90
2019-03-20T19:33:35.370Z,56.60
2019-03-20T19:36:03.898Z,57.60
2019-03-20T19:38:35.227Z,58.10
2019-03-20T19:41:01.042Z,59.30
2019-03-20T19:43:28.593Z,59.00
2019-03-20T19:45:56.259Z,58.80
2019-03-20T19:48:23.977Z,59.60
2019-03-20T19:50:52.481Z,59.10
2019-03-20T19:53:20.147Z,59.30
2019-03-20T19:55:48.058Z,59.80
2019-03-20T19:58:15.685Z,59.20
2019-03-20T20:00:43.476Z,59.60
2019-03-20T20:03:11.133Z,59.80
2019-03-20T20:05:38.778Z,59.70
2019-03-20T20:08:06.459Z,60.10
2019-03-20T20:10:34.139Z,60.50
2019-03-20T20:13:01.805Z,60.30
2019-03-20T20:15:29.394Z,60.30
2019-03-20T20:17:57.539Z,60.50
2019-03-20T20:20:25.239Z,60.50
2019-03-20T20:22:52.984Z,60.20
2019-03-20T20:25:20.546Z,58.50
2019-03-20T20:27:48.173Z,58.20
2019-03-20T20:30:16.241Z,58.10
2019-03-20T20:32:44.056Z,58.20
2019-03-20T20:35:11.961Z,58.10
2019-03-20T20:37:39.854Z,58.00
2019-03-20T20:40:09.035Z,57.80
2019-03-20T20:42:42.887Z,58.10
2019-03-20T20:45:06.674Z,58.30
2019-03-20T20:47:34.471Z,58.20
2019-03-20T20:50:02.115Z,58.70
2019-03-20T20:52:29.620Z,58.60
2019-03-20T20:54:57.223Z,58.50
2019-03-20T20:57:24.801Z,59.10
2019-03-20T20:59:52.291Z,59.00
2019-03-20T21:02:19.951Z,60.30
2019-03-20T21:04:47.606Z,61.40
2019-03-20T21:07:15.156Z,63.10
2019-03-20T21:09:42.621Z,64.50
2019-03-20T21:12:10.512Z,65.00
2019-03-20T21:14:38.320Z,65.00
2019-03-20T21:17:09.860Z,65.50
2019-03-20T21:19:47.574Z,65.60
2019-03-20T21:22:55.278Z,65.80
2019-03-20T21:25:23.264Z,66.40
2019-03-20T21:28:37.099Z,66.60
2019-03-20T21:31:27.134Z,66.90
2019-03-20T21:34:34.600Z,66.40
2019-03-20T21:37:40.010Z,66.70
2019-03-20T21:40:11.634Z,67.30
2019-03-20T21:43:13.999Z,67.60
2019-03-20T21:46:17.410Z,67.30
2019-03-20T21:48:45.364Z,67.40
2019-03-20T21:51:17.259Z,67.40
2019-03-20T21:54:10.536Z,67.80
2019-03-20T21:56:41.648Z,67.60
2019-03-20T21:59:21.896Z,67.60
2019-03-20T22:02:36.750Z,67.70
2019-03-20T22:05:04.858Z,67.30
2019-03-20T22:07:32.796Z,67.60
2019-03-20T22:10:37.778Z,68.10
2019-03-20T22:13:22.011Z,67.60
2019-03-20T22:16:34.699Z,67.50
2019-03-20T22:19:43.940Z,67.60
2019-03-20T22:23:07.942Z,67.10
2019-03-20T22:26:08.936Z,66.60
2019-03-20T22:29:24.296Z,67.00
2019-03-20T22:32:42.586Z,66.40
2019-03-20T22:35:46.036Z,66.10
2019-03-20T22:38:54.388Z,66.00
2019-03-20T22:41:47.660Z,65.90
2019-03-20T22:44:15.605Z,65.50
2019-03-20T22:47:36.045Z,65.90
2019-03-20T22:50:40.529Z,66.20
2019-03-20T22:53:47.339Z,66.00
2019-03-20T22:56:43.529Z,66.00
2019-03-20T22:59:11.523Z,66.10
2019-03-20T23:01:51.072Z,66.10
2019-03-20T23:04:31.495Z,66.00
2019-03-20T23:06:59.483Z,66.60
2019-03-20T23:09:27.438Z,66.40
2019-03-20T23:11:56.408Z,66.20
2019-03-20T23:14:24.430Z,65.80
2019-03-20T23:16:52.474Z,66.00
2019-03-20T23:19:20.471Z,65.90
2019-03-20T23:21:48.410Z,66.00
2019-03-20T23:24:16.278Z,66.00
2019-03-20T23:26:44.257Z,65.90
2019-03-20T23:29:12.231Z,66.00
2019-03-20T23:31:40.215Z,66.00
2019-03-20T23:34:08.056Z,65.90
2019-03-20T23:36:36.040Z,65.70
2019-03-20T23:39:06.624Z,66.00
2019-03-20T23:41:34.617Z,66.30
2019-03-20T23:44:02.479Z,66.00
2019-03-20T23:46:30.345Z,66.20
2019-03-20T23:49:02.139Z,66.30
2019-03-20T23:51:30.190Z,66.20
2019-03-20T23:53:58.153Z,66.20
2019-03-20T23:56:27.952Z,66.00
2019-03-20T23:58:55.921Z,66.30
